sensor_id;sensor_type;location;lat;lon;timestamp;P1;durP1;ratioP1;P2;durP2;ratioP2
8665;SDS011;4370;48.916;8.380;2023-04-03T00:00:47;3.67;;;2.20;;
8665;SDS011;4370;48.916;8.380;2023-04-03T00:03:22;2.30;;;1.97;;
8665;SDS011;4370;48.916;8.380;2023-04-03T00:05:55;2.93;;;2.23;;
8665;SDS011;4370;48.916;8.380;2023-04-03T00:08:25;3.33;;;2.30;;
8665;SDS011;4370;48.916;8.380;2023-04-03T00:10:51;3.10;;;2.40;;
8665;SDS011;4370;48.916;8.380;2023-04-03T00:13:32;2.70;;;2.37;;
8665;SDS011;4370;48.916;8.380;2023-04-03T00:15:58;3.87;;;2.37;;
8665;SDS011;4370;48.916;8.380;2023-04-03T00:21:55;3.77;;;2.10;;
8665;SDS011;4370;48.916;8.380;2023-04-03T00:24:58;4.03;;;1.80;;
8665;SDS011;4370;48.916;8.380;2023-04-03T00:27:26;4.87;;;2.40;;
8665;SDS011;4370;48.916;8.380;2023-04-03T00:30:02;3.40;;;2.03;;
8665;SDS011;4370;48.916;8.380;2023-04-03T00:32:31;4.57;;;2.20;;
8665;SDS011;4370;48.916;8.380;2023-04-03T00:34:57;3.80;;;2.10;;
8665;SDS011;4370;48.916;8.380;2023-04-03T00:37:36;5.43;;;2.40;;
8665;SDS011;4370;48.916;8.380;2023-04-03T00:40:45;2.97;;;2.10;;
8665;SDS011;4370;48.916;8.380;2023-04-03T00:43:47;3.10;;;2.20;;
8665;SDS011;4370;48.916;8.380;2023-04-03T00:49:40;3.47;;;1.90;;
8665;SDS011;4370;48.916;8.380;2023-04-03T00:52:29;2.77;;;1.90;;
8665;SDS011;4370;48.916;8.380;2023-04-03T00:55:00;3.40;;;2.00;;
8665;SDS011;4370;48.916;8.380;2023-04-03T00:57:40;3.97;;;2.00;;
8665;SDS011;4370;48.916;8.380;2023-04-03T01:03:23;3.10;;;2.27;;
8665;SDS011;4370;48.916;8.380;2023-04-03T01:06:25;5.30;;;2.20;;
8665;SDS011;4370;48.916;8.380;2023-04-03T01:11:42;3.23;;;1.90;;
8665;SDS011;4370;48.916;8.380;2023-04-03T01:14:29;5.17;;;2.23;;
8665;SDS011;4370;48.916;8.380;2023-04-03T01:23:12;4.83;;;2.10;;
8665;SDS011;4370;48.916;8.380;2023-04-03T01:26:36;2.10;;;1.93;;
8665;SDS011;4370;48.916;8.380;2023-04-03T01:29:02;3.23;;;2.13;;
8665;SDS011;4370;48.916;8.380;2023-04-03T01:38:21;4.20;;;2.23;;
8665;SDS011;4370;48.916;8.380;2023-04-03T01:40:46;3.80;;;2.13;;
8665;SDS011;4370;48.916;8.380;2023-04-03T01:43:19;2.40;;;1.90;;
8665;SDS011;4370;48.916;8.380;2023-04-03T01:45:55;3.17;;;2.00;;
8665;SDS011;4370;48.916;8.380;2023-04-03T01:51:28;2.73;;;2.03;;
8665;SDS011;4370;48.916;8.380;2023-04-03T01:53:58;2.67;;;2.00;;
8665;SDS011;4370;48.916;8.380;2023-04-03T02:02:02;2.97;;;1.80;;
8665;SDS011;4370;48.916;8.380;2023-04-03T02:08:16;3.13;;;1.87;;
8665;SDS011;4370;48.916;8.380;2023-04-03T02:10:49;3.83;;;2.07;;
8665;SDS011;4370;48.916;8.380;2023-04-03T02:13:15;3.33;;;2.00;;
8665;SDS011;4370;48.916;8.380;2023-04-03T02:18:56;4.00;;;2.00;;
8665;SDS011;4370;48.916;8.380;2023-04-03T02:21:24;4.50;;;2.30;;
8665;SDS011;4370;48.916;8.380;2023-04-03T02:23:51;2.33;;;1.70;;
8665;SDS011;4370;48.916;8.380;2023-04-03T02:26:27;3.07;;;2.20;;
8665;SDS011;4370;48.916;8.380;2023-04-03T02:35:53;2.93;;;1.83;;
8665;SDS011;4370;48.916;8.380;2023-04-03T02:38:54;4.37;;;2.07;;
8665;SDS011;4370;48.916;8.380;2023-04-03T02:42:03;5.00;;;1.97;;
8665;SDS011;4370;48.916;8.380;2023-04-03T02:44:38;3.63;;;2.00;;
8665;SDS011;4370;48.916;8.380;2023-04-03T02:47:05;4.13;;;2.20;;
8665;SDS011;4370;48.916;8.380;2023-04-03T02:49:33;2.57;;;2.10;;
8665;SDS011;4370;48.916;8.380;2023-04-03T02:52:12;2.20;;;2.00;;
8665;SDS011;4370;48.916;8.380;2023-04-03T02:58:12;4.10;;;2.50;;
8665;SDS011;4370;48.916;8.380;2023-04-03T03:00:42;2.77;;;2.17;;
8665;SDS011;4370;48.916;8.380;2023-04-03T03:03:17;4.17;;;2.13;;
8665;SDS011;4370;48.916;8.380;2023-04-03T03:06:11;3.53;;;2.17;;
8665;SDS011;4370;48.916;8.380;2023-04-03T03:09:01;3.50;;;2.17;;
8665;SDS011;4370;48.916;8.380;2023-04-03T03:11:30;6.30;;;2.20;;
8665;SDS011;4370;48.916;8.380;2023-04-03T03:13:56;3.33;;;2.23;;
8665;SDS011;4370;48.916;8.380;2023-04-03T03:19:58;3.97;;;2.30;;
8665;SDS011;4370;48.916;8.380;2023-04-03T03:22:48;2.23;;;1.80;;
8665;SDS011;4370;48.916;8.380;2023-04-03T03:25:26;3.63;;;2.17;;
8665;SDS011;4370;48.916;8.380;2023-04-03T03:27:54;4.73;;;2.60;;
8665;SDS011;4370;48.916;8.380;2023-04-03T03:31:26;4.13;;;2.47;;
8665;SDS011;4370;48.916;8.380;2023-04-03T03:33:50;5.03;;;2.60;;
8665;SDS011;4370;48.916;8.380;2023-04-03T03:36:28;3.33;;;2.60;;
8665;SDS011;4370;48.916;8.380;2023-04-03T03:38:54;4.90;;;2.40;;
8665;SDS011;4370;48.916;8.380;2023-04-03T03:41:39;2.40;;;1.93;;
8665;SDS011;4370;48.916;8.380;2023-04-03T03:46:53;8.70;;;2.30;;
8665;SDS011;4370;48.916;8.380;2023-04-03T03:49:40;2.13;;;1.90;;
8665;SDS011;4370;48.916;8.380;2023-04-03T03:52:21;2.70;;;1.93;;
8665;SDS011;4370;48.916;8.380;2023-04-03T03:54:55;5.80;;;2.50;;
8665;SDS011;4370;48.916;8.380;2023-04-03T03:57:21;2.40;;;2.17;;
8665;SDS011;4370;48.916;8.380;2023-04-03T03:59:50;3.20;;;2.60;;
8665;SDS011;4370;48.916;8.380;2023-04-03T04:02:20;5.03;;;2.43;;
8665;SDS011;4370;48.916;8.380;2023-04-03T04:04:46;3.40;;;2.30;;
8665;SDS011;4370;48.916;8.380;2023-04-03T04:07:48;4.83;;;2.83;;
8665;SDS011;4370;48.916;8.380;2023-04-03T04:13:23;4.00;;;2.50;;
8665;SDS011;4370;48.916;8.380;2023-04-03T04:25:53;4.40;;;2.70;;
8665;SDS011;4370;48.916;8.380;2023-04-03T04:28:20;3.70;;;2.60;;
8665;SDS011;4370;48.916;8.380;2023-04-03T04:30:46;6.10;;;3.00;;
8665;SDS011;4370;48.916;8.380;2023-04-03T04:33:12;3.77;;;2.70;;
8665;SDS011;4370;48.916;8.380;2023-04-03T04:35:59;3.27;;;2.60;;
8665;SDS011;4370;48.916;8.380;2023-04-03T04:38:24;3.67;;;2.53;;
8665;SDS011;4370;48.916;8.380;2023-04-03T04:40:52;3.70;;;2.50;;
8665;SDS011;4370;48.916;8.380;2023-04-03T04:43:18;4.97;;;2.87;;
8665;SDS011;4370;48.916;8.380;2023-04-03T04:45:44;6.23;;;2.80;;
8665;SDS011;4370;48.916;8.380;2023-04-03T04:48:28;3.40;;;2.50;;
8665;SDS011;4370;48.916;8.380;2023-04-03T04:56:45;4.23;;;3.00;;
8665;SDS011;4370;48.916;8.380;2023-04-03T04:59:11;2.77;;;2.27;;
8665;SDS011;4370;48.916;8.380;2023-04-03T05:01:39;5.03;;;2.70;;
8665;SDS011;4370;48.916;8.380;2023-04-03T05:04:22;3.10;;;2.27;;
8665;SDS011;4370;48.916;8.380;2023-04-03T05:07:02;2.83;;;2.23;;
8665;SDS011;4370;48.916;8.380;2023-04-03T05:09:38;3.37;;;2.30;;
8665;SDS011;4370;48.916;8.380;2023-04-03T05:12:07;3.57;;;2.60;;
8665;SDS011;4370;48.916;8.380;2023-04-03T05:14:39;4.13;;;2.67;;
8665;SDS011;4370;48.916;8.380;2023-04-03T05:17:08;7.20;;;2.50;;
8665;SDS011;4370;48.916;8.380;2023-04-03T05:19:40;3.40;;;2.60;;
8665;SDS011;4370;48.916;8.380;2023-04-03T05:28:58;4.83;;;2.80;;
8665;SDS011;4370;48.916;8.380;2023-04-03T05:41:21;3.20;;;2.80;;
8665;SDS011;4370;48.916;8.380;2023-04-03T05:43:50;6.10;;;2.87;;
8665;SDS011;4370;48.916;8.380;2023-04-03T05:46:16;4.27;;;2.60;;
8665;SDS011;4370;48.916;8.380;2023-04-03T05:48:44;3.73;;;2.60;;
8665;SDS011;4370;48.916;8.380;2023-04-03T05:54:16;5.10;;;2.47;;
8665;SDS011;4370;48.916;8.380;2023-04-03T05:56:49;5.07;;;3.03;;
8665;SDS011;4370;48.916;8.380;2023-04-03T05:59:16;3.17;;;2.30;;
8665;SDS011;4370;48.916;8.380;2023-04-03T06:01:42;3.50;;;2.60;;
8665;SDS011;4370;48.916;8.380;2023-04-03T06:04:08;4.47;;;3.00;;
8665;SDS011;4370;48.916;8.380;2023-04-03T06:07:21;3.40;;;2.20;;
8665;SDS011;4370;48.916;8.380;2023-04-03T06:09:32;3.10;;;2.23;;
8665;SDS011;4370;48.916;8.380;2023-04-03T06:11:59;2.97;;;2.40;;
8665;SDS011;4370;48.916;8.380;2023-04-03T06:14:41;6.33;;;2.60;;
8665;SDS011;4370;48.916;8.380;2023-04-03T06:17:26;4.00;;;2.50;;
8665;SDS011;4370;48.916;8.380;2023-04-03T06:22:29;3.03;;;2.00;;
8665;SDS011;4370;48.916;8.380;2023-04-03T06:25:01;3.60;;;2.30;;
8665;SDS011;4370;48.916;8.380;2023-04-03T06:27:45;4.43;;;2.60;;
8665;SDS011;4370;48.916;8.380;2023-04-03T06:30:11;3.33;;;2.50;;
8665;SDS011;4370;48.916;8.380;2023-04-03T06:32:37;3.80;;;2.50;;
8665;SDS011;4370;48.916;8.380;2023-04-03T06:35:04;3.90;;;2.40;;
8665;SDS011;4370;48.916;8.380;2023-04-03T06:44:43;3.37;;;2.47;;
8665;SDS011;4370;48.916;8.380;2023-04-03T06:54:45;4.07;;;2.47;;
8665;SDS011;4370;48.916;8.380;2023-04-03T06:57:19;4.20;;;2.50;;
8665;SDS011;4370;48.916;8.380;2023-04-03T06:59:46;3.13;;;2.40;;
8665;SDS011;4370;48.916;8.380;2023-04-03T07:02:21;4.50;;;2.33;;
8665;SDS011;4370;48.916;8.380;2023-04-03T07:04:47;3.43;;;2.40;;
8665;SDS011;4370;48.916;8.380;2023-04-03T07:07:12;5.97;;;2.40;;
8665;SDS011;4370;48.916;8.380;2023-04-03T07:12:52;4.00;;;2.13;;
8665;SDS011;4370;48.916;8.380;2023-04-03T07:15:17;3.97;;;2.20;;
8665;SDS011;4370;48.916;8.380;2023-04-03T07:17:49;3.40;;;2.03;;
8665;SDS011;4370;48.916;8.380;2023-04-03T07:20:18;4.47;;;2.20;;
8665;SDS011;4370;48.916;8.380;2023-04-03T07:26:51;4.73;;;2.57;;
8665;SDS011;4370;48.916;8.380;2023-04-03T07:36:28;4.33;;;2.30;;
8665;SDS011;4370;48.916;8.380;2023-04-03T07:38:54;4.80;;;2.70;;
8665;SDS011;4370;48.916;8.380;2023-04-03T07:41:21;5.63;;;2.70;;
8665;SDS011;4370;48.916;8.380;2023-04-03T07:43:48;4.13;;;2.70;;
8665;SDS011;4370;48.916;8.380;2023-04-03T07:46:15;3.30;;;2.47;;
8665;SDS011;4370;48.916;8.380;2023-04-03T07:48:42;3.30;;;2.37;;
8665;SDS011;4370;48.916;8.380;2023-04-03T07:51:17;6.37;;;2.60;;
8665;SDS011;4370;48.916;8.380;2023-04-03T07:53:44;5.53;;;2.90;;
8665;SDS011;4370;48.916;8.380;2023-04-03T07:56:10;6.13;;;2.73;;
8665;SDS011;4370;48.916;8.380;2023-04-03T07:58:36;5.87;;;2.40;;
8665;SDS011;4370;48.916;8.380;2023-04-03T08:01:08;5.73;;;2.67;;
8665;SDS011;4370;48.916;8.380;2023-04-03T08:10:31;3.77;;;2.60;;
8665;SDS011;4370;48.916;8.380;2023-04-03T08:23:18;5.10;;;2.70;;
8665;SDS011;4370;48.916;8.380;2023-04-03T08:29:14;3.93;;;2.40;;
8665;SDS011;4370;48.916;8.380;2023-04-03T08:51:00;8.07;;;2.53;;
8665;SDS011;4370;48.916;8.380;2023-04-03T09:13:26;4.10;;;2.40;;
8665;SDS011;4370;48.916;8.380;2023-04-03T09:30:05;3.10;;;2.33;;
8665;SDS011;4370;48.916;8.380;2023-04-03T09:32:41;3.97;;;2.60;;
8665;SDS011;4370;48.916;8.380;2023-04-03T09:38:17;3.93;;;2.50;;
8665;SDS011;4370;48.916;8.380;2023-04-03T09:51:08;4.37;;;2.00;;
8665;SDS011;4370;48.916;8.380;2023-04-03T09:57:36;3.40;;;2.07;;
8665;SDS011;4370;48.916;8.380;2023-04-03T10:00:03;4.93;;;2.30;;
8665;SDS011;4370;48.916;8.380;2023-04-03T10:09:36;3.77;;;2.20;;
8665;SDS011;4370;48.916;8.380;2023-04-03T10:12:15;3.90;;;2.30;;
8665;SDS011;4370;48.916;8.380;2023-04-03T10:28:01;3.00;;;2.07;;
8665;SDS011;4370;48.916;8.380;2023-04-03T10:47:48;3.20;;;2.30;;
8665;SDS011;4370;48.916;8.380;2023-04-03T10:57:16;5.50;;;1.97;;
8665;SDS011;4370;48.916;8.380;2023-04-03T10:59:44;4.27;;;1.80;;
8665;SDS011;4370;48.916;8.380;2023-04-03T11:02:36;2.83;;;1.77;;
8665;SDS011;4370;48.916;8.380;2023-04-03T11:37:15;4.13;;;1.80;;
8665;SDS011;4370;48.916;8.380;2023-04-03T11:58:52;3.60;;;1.97;;
8665;SDS011;4370;48.916;8.380;2023-04-03T12:01:47;2.07;;;1.50;;
8665;SDS011;4370;48.916;8.380;2023-04-03T12:04:32;3.97;;;1.80;;
8665;SDS011;4370;48.916;8.380;2023-04-03T12:10:25;2.10;;;1.57;;
8665;SDS011;4370;48.916;8.380;2023-04-03T12:25:49;3.20;;;1.60;;
8665;SDS011;4370;48.916;8.380;2023-04-03T12:39:05;1.73;;;1.60;;
8665;SDS011;4370;48.916;8.380;2023-04-03T12:48:56;3.13;;;1.77;;
8665;SDS011;4370;48.916;8.380;2023-04-03T12:55:03;3.20;;;1.70;;
8665;SDS011;4370;48.916;8.380;2023-04-03T12:57:38;7.10;;;1.90;;
8665;SDS011;4370;48.916;8.380;2023-04-03T13:00:43;2.80;;;1.60;;
8665;SDS011;4370;48.916;8.380;2023-04-03T13:03:29;2.50;;;1.70;;
8665;SDS011;4370;48.916;8.380;2023-04-03T13:05:59;4.20;;;2.07;;
8665;SDS011;4370;48.916;8.380;2023-04-03T13:09:02;2.37;;;1.70;;
8665;SDS011;4370;48.916;8.380;2023-04-03T13:11:33;5.03;;;1.97;;
8665;SDS011;4370;48.916;8.380;2023-04-03T13:17:29;3.63;;;1.80;;
8665;SDS011;4370;48.916;8.380;2023-04-03T13:23:17;4.80;;;1.70;;
8665;SDS011;4370;48.916;8.380;2023-04-03T13:26:23;2.50;;;1.80;;
8665;SDS011;4370;48.916;8.380;2023-04-03T13:29:02;4.23;;;1.93;;
8665;SDS011;4370;48.916;8.380;2023-04-03T13:31:51;4.60;;;1.73;;
8665;SDS011;4370;48.916;8.380;2023-04-03T13:34:21;4.00;;;1.83;;
8665;SDS011;4370;48.916;8.380;2023-04-03T14:02:22;5.37;;;2.00;;
8665;SDS011;4370;48.916;8.380;2023-04-03T14:08:30;3.00;;;1.83;;
8665;SDS011;4370;48.916;8.380;2023-04-03T14:10:57;4.40;;;2.07;;
8665;SDS011;4370;48.916;8.380;2023-04-03T14:20:14;3.00;;;1.50;;
8665;SDS011;4370;48.916;8.380;2023-04-03T14:25:53;5.30;;;2.10;;
8665;SDS011;4370;48.916;8.380;2023-04-03T14:28:37;3.07;;;1.73;;
8665;SDS011;4370;48.916;8.380;2023-04-03T14:37:53;2.07;;;1.70;;
8665;SDS011;4370;48.916;8.380;2023-04-03T14:43:50;3.53;;;1.90;;
8665;SDS011;4370;48.916;8.380;2023-04-03T14:52:48;5.77;;;2.10;;
8665;SDS011;4370;48.916;8.380;2023-04-03T14:55:17;3.93;;;1.80;;
8665;SDS011;4370;48.916;8.380;2023-04-03T14:58:22;3.37;;;1.90;;
8665;SDS011;4370;48.916;8.380;2023-04-03T15:00:49;3.57;;;1.70;;
8665;SDS011;4370;48.916;8.380;2023-04-03T15:13:53;4.27;;;2.03;;
8665;SDS011;4370;48.916;8.380;2023-04-03T15:16:18;2.00;;;1.67;;
8665;SDS011;4370;48.916;8.380;2023-04-03T15:18:45;4.77;;;1.80;;
8665;SDS011;4370;48.916;8.380;2023-04-03T15:21:12;3.63;;;2.17;;
8665;SDS011;4370;48.916;8.380;2023-04-03T15:23:38;2.37;;;1.80;;
8665;SDS011;4370;48.916;8.380;2023-04-03T15:26:04;3.67;;;1.93;;
8665;SDS011;4370;48.916;8.380;2023-04-03T15:28:31;4.33;;;1.80;;
8665;SDS011;4370;48.916;8.380;2023-04-03T15:31:00;3.07;;;1.80;;
8665;SDS011;4370;48.916;8.380;2023-04-03T15:33:45;5.20;;;1.80;;
8665;SDS011;4370;48.916;8.380;2023-04-03T15:36:10;3.40;;;1.70;;
8665;SDS011;4370;48.916;8.380;2023-04-03T15:38:45;3.13;;;1.77;;
8665;SDS011;4370;48.916;8.380;2023-04-03T15:41:19;3.33;;;1.80;;
8665;SDS011;4370;48.916;8.380;2023-04-03T15:47:16;4.20;;;1.80;;
8665;SDS011;4370;48.916;8.380;2023-04-03T15:49:44;5.33;;;2.00;;
8665;SDS011;4370;48.916;8.380;2023-04-03T15:52:10;2.63;;;2.00;;
8665;SDS011;4370;48.916;8.380;2023-04-03T15:54:52;2.30;;;1.93;;
8665;SDS011;4370;48.916;8.380;2023-04-03T15:57:22;3.30;;;1.97;;
8665;SDS011;4370;48.916;8.380;2023-04-03T16:00:03;5.13;;;2.00;;
8665;SDS011;4370;48.916;8.380;2023-04-03T16:02:30;4.97;;;1.90;;
8665;SDS011;4370;48.916;8.380;2023-04-03T16:04:56;3.13;;;1.80;;
8665;SDS011;4370;48.916;8.380;2023-04-03T16:07:31;4.60;;;2.27;;
8665;SDS011;4370;48.916;8.380;2023-04-03T16:10:24;4.10;;;2.20;;
8665;SDS011;4370;48.916;8.380;2023-04-03T16:12:54;2.70;;;1.60;;
8665;SDS011;4370;48.916;8.380;2023-04-03T16:15:35;2.07;;;1.80;;
8665;SDS011;4370;48.916;8.380;2023-04-03T16:18:05;4.07;;;2.20;;
8665;SDS011;4370;48.916;8.380;2023-04-03T16:20:34;4.23;;;1.90;;
8665;SDS011;4370;48.916;8.380;2023-04-03T16:23:00;5.27;;;1.90;;
8665;SDS011;4370;48.916;8.380;2023-04-03T16:28:39;2.63;;;1.80;;
8665;SDS011;4370;48.916;8.380;2023-04-03T16:31:05;5.37;;;2.10;;
8665;SDS011;4370;48.916;8.380;2023-04-03T16:33:32;2.63;;;1.90;;
8665;SDS011;4370;48.916;8.380;2023-04-03T16:35:58;3.23;;;1.80;;
8665;SDS011;4370;48.916;8.380;2023-04-03T16:38:23;2.10;;;1.90;;
8665;SDS011;4370;48.916;8.380;2023-04-03T16:40:56;3.77;;;2.00;;
8665;SDS011;4370;48.916;8.380;2023-04-03T16:43:24;4.57;;;2.10;;
8665;SDS011;4370;48.916;8.380;2023-04-03T16:45:51;2.20;;;2.00;;
8665;SDS011;4370;48.916;8.380;2023-04-03T16:48:16;3.77;;;2.10;;
8665;SDS011;4370;48.916;8.380;2023-04-03T16:50:54;4.43;;;1.90;;
8665;SDS011;4370;48.916;8.380;2023-04-03T16:53:26;3.13;;;2.00;;
8665;SDS011;4370;48.916;8.380;2023-04-03T16:55:52;3.50;;;2.00;;
8665;SDS011;4370;48.916;8.380;2023-04-03T16:58:19;3.30;;;2.03;;
8665;SDS011;4370;48.916;8.380;2023-04-03T17:00:45;4.53;;;1.97;;
8665;SDS011;4370;48.916;8.380;2023-04-03T17:03:12;3.27;;;1.80;;
8665;SDS011;4370;48.916;8.380;2023-04-03T17:05:51;3.17;;;2.00;;
8665;SDS011;4370;48.916;8.380;2023-04-03T17:08:17;2.70;;;1.97;;
8665;SDS011;4370;48.916;8.380;2023-04-03T17:10:46;5.07;;;2.07;;
8665;SDS011;4370;48.916;8.380;2023-04-03T17:13:12;5.43;;;1.93;;
8665;SDS011;4370;48.916;8.380;2023-04-03T17:15:38;6.13;;;2.80;;
8665;SDS011;4370;48.916;8.380;2023-04-03T17:20:55;3.60;;;1.83;;
8665;SDS011;4370;48.916;8.380;2023-04-03T17:23:23;2.93;;;2.17;;
8665;SDS011;4370;48.916;8.380;2023-04-03T17:25:59;2.73;;;1.90;;
8665;SDS011;4370;48.916;8.380;2023-04-03T17:28:26;3.23;;;1.80;;
8665;SDS011;4370;48.916;8.380;2023-04-03T17:30:56;2.30;;;1.97;;
8665;SDS011;4370;48.916;8.380;2023-04-03T17:33:23;6.87;;;2.10;;
8665;SDS011;4370;48.916;8.380;2023-04-03T17:35:49;4.33;;;2.10;;
8665;SDS011;4370;48.916;8.380;2023-04-03T17:38:15;6.03;;;2.13;;
8665;SDS011;4370;48.916;8.380;2023-04-03T17:40:41;2.80;;;2.23;;
8665;SDS011;4370;48.916;8.380;2023-04-03T17:43:08;3.77;;;2.30;;
8665;SDS011;4370;48.916;8.380;2023-04-03T17:45:35;3.17;;;2.10;;
8665;SDS011;4370;48.916;8.380;2023-04-03T17:48:01;2.95;;;1.95;;
8665;SDS011;4370;48.916;8.380;2023-04-03T17:50:28;3.43;;;1.93;;
8665;SDS011;4370;48.916;8.380;2023-04-03T17:52:53;5.37;;;2.30;;
8665;SDS011;4370;48.916;8.380;2023-04-03T17:55:19;3.10;;;1.90;;
8665;SDS011;4370;48.916;8.380;2023-04-03T17:57:45;3.13;;;1.90;;
8665;SDS011;4370;48.916;8.380;2023-04-03T18:00:12;3.17;;;1.80;;
8665;SDS011;4370;48.916;8.380;2023-04-03T18:02:39;3.00;;;2.00;;
8665;SDS011;4370;48.916;8.380;2023-04-03T18:05:06;3.87;;;1.83;;
8665;SDS011;4370;48.916;8.380;2023-04-03T18:07:35;4.57;;;1.70;;
8665;SDS011;4370;48.916;8.380;2023-04-03T18:10:04;3.23;;;2.03;;
8665;SDS011;4370;48.916;8.380;2023-04-03T18:12:34;2.87;;;1.97;;
8665;SDS011;4370;48.916;8.380;2023-04-03T18:15:02;4.63;;;2.10;;
8665;SDS011;4370;48.916;8.380;2023-04-03T18:17:31;4.73;;;1.77;;
8665;SDS011;4370;48.916;8.380;2023-04-03T18:20:08;3.73;;;1.90;;
8665;SDS011;4370;48.916;8.380;2023-04-03T18:22:35;8.03;;;2.23;;
8665;SDS011;4370;48.916;8.380;2023-04-03T18:25:01;3.90;;;2.30;;
8665;SDS011;4370;48.916;8.380;2023-04-03T18:27:27;3.77;;;2.20;;
8665;SDS011;4370;48.916;8.380;2023-04-03T18:30:00;2.93;;;2.07;;
8665;SDS011;4370;48.916;8.380;2023-04-03T18:35:11;2.70;;;1.80;;
8665;SDS011;4370;48.916;8.380;2023-04-03T18:37:37;4.53;;;2.23;;
8665;SDS011;4370;48.916;8.380;2023-04-03T18:40:03;3.07;;;1.90;;
8665;SDS011;4370;48.916;8.380;2023-04-03T18:42:32;2.10;;;1.60;;
8665;SDS011;4370;48.916;8.380;2023-04-03T18:45:03;3.53;;;2.10;;
8665;SDS011;4370;48.916;8.380;2023-04-03T18:47:30;5.07;;;2.10;;
8665;SDS011;4370;48.916;8.380;2023-04-03T18:49:56;6.27;;;2.10;;
8665;SDS011;4370;48.916;8.380;2023-04-03T18:52:23;3.80;;;2.00;;
8665;SDS011;4370;48.916;8.380;2023-04-03T18:54:49;3.00;;;1.73;;
8665;SDS011;4370;48.916;8.380;2023-04-03T18:57:16;3.00;;;1.70;;
8665;SDS011;4370;48.916;8.380;2023-04-03T18:59:42;3.03;;;2.20;;
8665;SDS011;4370;48.916;8.380;2023-04-03T19:02:09;3.37;;;1.70;;
8665;SDS011;4370;48.916;8.380;2023-04-03T19:04:36;2.13;;;1.70;;
8665;SDS011;4370;48.916;8.380;2023-04-03T19:07:02;2.40;;;1.53;;
8665;SDS011;4370;48.916;8.380;2023-04-03T19:09:30;3.20;;;1.90;;
8665;SDS011;4370;48.916;8.380;2023-04-03T19:11:58;3.47;;;2.00;;
8665;SDS011;4370;48.916;8.380;2023-04-03T19:14:26;1.90;;;1.60;;
8665;SDS011;4370;48.916;8.380;2023-04-03T19:16:57;5.17;;;2.10;;
8665;SDS011;4370;48.916;8.380;2023-04-03T19:19:23;2.50;;;1.60;;
8665;SDS011;4370;48.916;8.380;2023-04-03T19:21:53;2.40;;;1.60;;
8665;SDS011;4370;48.916;8.380;2023-04-03T19:24:19;4.00;;;1.80;;
8665;SDS011;4370;48.916;8.380;2023-04-03T19:26:47;2.53;;;1.90;;
8665;SDS011;4370;48.916;8.380;2023-04-03T19:29:14;3.43;;;2.00;;
8665;SDS011;4370;48.916;8.380;2023-04-03T19:31:40;3.20;;;1.93;;
8665;SDS011;4370;48.916;8.380;2023-04-03T19:34:10;1.70;;;1.50;;
8665;SDS011;4370;48.916;8.380;2023-04-03T19:36:36;3.03;;;1.70;;
8665;SDS011;4370;48.916;8.380;2023-04-03T19:39:02;4.07;;;2.27;;
8665;SDS011;4370;48.916;8.380;2023-04-03T19:41:46;3.07;;;1.70;;
8665;SDS011;4370;48.916;8.380;2023-04-03T19:44:15;2.93;;;1.93;;
8665;SDS011;4370;48.916;8.380;2023-04-03T19:46:41;3.20;;;1.80;;
8665;SDS011;4370;48.916;8.380;2023-04-03T19:49:07;2.60;;;1.80;;
8665;SDS011;4370;48.916;8.380;2023-04-03T19:51:55;4.37;;;1.93;;
8665;SDS011;4370;48.916;8.380;2023-04-03T19:54:20;5.80;;;2.10;;
8665;SDS011;4370;48.916;8.380;2023-04-03T19:56:47;3.00;;;1.70;;
8665;SDS011;4370;48.916;8.380;2023-04-03T19:59:15;2.03;;;1.60;;
8665;SDS011;4370;48.916;8.380;2023-04-03T20:01:41;2.00;;;1.80;;
8665;SDS011;4370;48.916;8.380;2023-04-03T20:04:07;3.33;;;1.77;;
8665;SDS011;4370;48.916;8.380;2023-04-03T20:06:34;4.23;;;1.80;;
8665;SDS011;4370;48.916;8.380;2023-04-03T20:09:02;2.57;;;1.63;;
8665;SDS011;4370;48.916;8.380;2023-04-03T20:11:28;4.23;;;1.73;;
8665;SDS011;4370;48.916;8.380;2023-04-03T20:14:05;4.33;;;1.97;;
8665;SDS011;4370;48.916;8.380;2023-04-03T20:16:31;3.10;;;2.00;;
8665;SDS011;4370;48.916;8.380;2023-04-03T20:18:57;2.63;;;1.90;;
8665;SDS011;4370;48.916;8.380;2023-04-03T20:21:27;5.17;;;1.97;;
8665;SDS011;4370;48.916;8.380;2023-04-03T20:23:58;5.03;;;2.10;;
8665;SDS011;4370;48.916;8.380;2023-04-03T20:26:26;3.40;;;1.80;;
8665;SDS011;4370;48.916;8.380;2023-04-03T20:28:54;2.80;;;1.70;;
8665;SDS011;4370;48.916;8.380;2023-04-03T20:31:24;4.40;;;1.70;;
8665;SDS011;4370;48.916;8.380;2023-04-03T20:33:53;1.90;;;1.67;;
8665;SDS011;4370;48.916;8.380;2023-04-03T20:36:18;3.37;;;1.87;;
8665;SDS011;4370;48.916;8.380;2023-04-03T20:38:45;3.63;;;2.07;;
8665;SDS011;4370;48.916;8.380;2023-04-03T20:41:12;3.47;;;2.03;;
8665;SDS011;4370;48.916;8.380;2023-04-03T20:43:38;2.87;;;1.93;;
8665;SDS011;4370;48.916;8.380;2023-04-03T20:46:06;2.20;;;1.60;;
8665;SDS011;4370;48.916;8.380;2023-04-03T20:48:33;3.10;;;1.80;;
8665;SDS011;4370;48.916;8.380;2023-04-03T20:51:09;2.33;;;1.83;;
8665;SDS011;4370;48.916;8.380;2023-04-03T20:53:36;2.37;;;1.70;;
8665;SDS011;4370;48.916;8.380;2023-04-03T20:56:02;4.77;;;2.20;;
8665;SDS011;4370;48.916;8.380;2023-04-03T20:58:29;5.23;;;2.00;;
8665;SDS011;4370;48.916;8.380;2023-04-03T21:00:58;3.20;;;1.70;;
8665;SDS011;4370;48.916;8.380;2023-04-03T21:03:28;4.07;;;1.97;;
8665;SDS011;4370;48.916;8.380;2023-04-03T21:20:42;3.60;;;1.80;;
8665;SDS011;4370;48.916;8.380;2023-04-03T21:23:14;3.67;;;1.93;;
8665;SDS011;4370;48.916;8.380;2023-04-03T21:25:41;4.57;;;1.80;;
8665;SDS011;4370;48.916;8.380;2023-04-03T21:28:07;3.30;;;1.60;;
8665;SDS011;4370;48.916;8.380;2023-04-03T21:30:34;2.00;;;1.60;;
8665;SDS011;4370;48.916;8.380;2023-04-03T21:33:00;3.13;;;1.60;;
8665;SDS011;4370;48.916;8.380;2023-04-03T21:35:26;3.43;;;1.70;;
8665;SDS011;4370;48.916;8.380;2023-04-03T21:37:53;5.37;;;1.97;;
8665;SDS011;4370;48.916;8.380;2023-04-03T21:40:19;3.57;;;1.70;;
8665;SDS011;4370;48.916;8.380;2023-04-03T21:42:45;3.00;;;1.70;;
8665;SDS011;4370;48.916;8.380;2023-04-03T21:45:11;5.13;;;2.00;;
8665;SDS011;4370;48.916;8.380;2023-04-03T21:47:41;2.40;;;1.80;;
8665;SDS011;4370;48.916;8.380;2023-04-03T21:50:07;4.73;;;1.60;;
8665;SDS011;4370;48.916;8.380;2023-04-03T21:52:33;3.07;;;1.50;;
8665;SDS011;4370;48.916;8.380;2023-04-03T21:55:00;3.50;;;1.63;;
8665;SDS011;4370;48.916;8.380;2023-04-03T21:57:25;3.83;;;2.00;;
8665;SDS011;4370;48.916;8.380;2023-04-03T21:59:51;3.87;;;1.70;;
8665;SDS011;4370;48.916;8.380;2023-04-03T22:02:17;4.27;;;1.90;;
8665;SDS011;4370;48.916;8.380;2023-04-03T22:04:46;4.47;;;1.80;;
8665;SDS011;4370;48.916;8.380;2023-04-03T22:07:12;2.47;;;1.50;;
8665;SDS011;4370;48.916;8.380;2023-04-03T22:09:38;2.67;;;1.77;;
8665;SDS011;4370;48.916;8.380;2023-04-03T22:12:04;3.87;;;1.60;;
8665;SDS011;4370;48.916;8.380;2023-04-03T22:14:32;3.77;;;2.10;;
8665;SDS011;4370;48.916;8.380;2023-04-03T22:16:58;1.93;;;1.67;;
8665;SDS011;4370;48.916;8.380;2023-04-03T22:19:24;3.00;;;1.80;;
8665;SDS011;4370;48.916;8.380;2023-04-03T22:21:51;2.53;;;1.70;;
8665;SDS011;4370;48.916;8.380;2023-04-03T22:24:16;3.77;;;1.87;;
8665;SDS011;4370;48.916;8.380;2023-04-03T22:26:44;3.37;;;1.70;;
8665;SDS011;4370;48.916;8.380;2023-04-03T22:29:11;3.67;;;1.63;;
8665;SDS011;4370;48.916;8.380;2023-04-03T22:31:37;5.13;;;1.97;;
8665;SDS011;4370;48.916;8.380;2023-04-03T22:34:05;3.17;;;1.67;;
8665;SDS011;4370;48.916;8.380;2023-04-03T22:36:31;2.30;;;1.80;;
8665;SDS011;4370;48.916;8.380;2023-04-03T22:38:59;2.33;;;1.53;;
8665;SDS011;4370;48.916;8.380;2023-04-03T22:41:27;2.53;;;1.70;;
8665;SDS011;4370;48.916;8.380;2023-04-03T22:43:55;3.77;;;1.80;;
8665;SDS011;4370;48.916;8.380;2023-04-03T22:46:42;2.10;;;1.73;;
8665;SDS011;4370;48.916;8.380;2023-04-03T22:49:07;4.27;;;1.90;;
8665;SDS011;4370;48.916;8.380;2023-04-03T22:51:33;3.53;;;1.53;;
8665;SDS011;4370;48.916;8.380;2023-04-03T22:53:59;4.27;;;1.60;;
8665;SDS011;4370;48.916;8.380;2023-04-03T22:56:25;2.03;;;1.57;;
8665;SDS011;4370;48.916;8.380;2023-04-03T22:58:53;4.67;;;1.80;;
8665;SDS011;4370;48.916;8.380;2023-04-03T23:01:20;4.40;;;1.70;;
8665;SDS011;4370;48.916;8.380;2023-04-03T23:03:59;3.53;;;1.73;;
8665;SDS011;4370;48.916;8.380;2023-04-03T23:06:34;3.03;;;1.80;;
8665;SDS011;4370;48.916;8.380;2023-04-03T23:09:00;2.87;;;1.67;;
8665;SDS011;4370;48.916;8.380;2023-04-03T23:11:26;3.40;;;1.80;;
8665;SDS011;4370;48.916;8.380;2023-04-03T23:13:53;4.40;;;1.70;;